Airfield :
LOGIN :

Register | Disclaimer

   EN    FR    IT 

 










Legend :    VFR   Marginal VFR   IFR   Intensive IFR   Very Intensive IFR
Visi :
Ceiling :
>= 8 km
>= 3000ft
5 to 8 km
1000 to 3000 ft
1500m to 5 km
500 to 1000 ft
800 to 1500m
200 to 500 ft
< 800m
< 200 ft
Symbols :   Thunderstorms  Fog  Heavy snow  Heavy precipitations  Wind > 20 kt
SIGMETs :     Misc.  Thunderstorms  Icing  Turbulence  Mountain Waves  Volcanic Ashes







- Airport Elevation : 459 ft
- IATA code : CER
- Download approach charts


LFRC - Cherbourg / Maupertus

CURRENT METAR :
  • 112300Z AUTO 17009KT CAVOK 06/03 Q1021

EXPIRED METARs :
  • 112230Z AUTO 17011KT CAVOK 06/03 Q1020
  • 112200Z AUTO 17012KT CAVOK 06/03 Q1020
  • 112130Z AUTO 16014KT CAVOK 06/03 Q1020
  • 112100Z AUTO 16014KT CAVOK 06/03 Q1020
  • 112030Z AUTO 15012KT CAVOK 06/03 Q1021
  • 112000Z AUTO 16012KT CAVOK 07/03 Q1021

TAF TAF LFRC
Valid from the 11 at 15:00 until the 12 at 00:00 UTC


111400Z 1115/1124 15008KT CAVOK
No reported NOTAMs for that airfield.
3 SIGMETs reported for the Brest FIR (LFRR) :
 
Severe turbulence
LFRR SIGMET 3 VALID 120000/120400 LFPW
LFRR BREST FIR/UIR SEV TURB FCST WI N4830 W00800 - N4900 W00800 - N4915 W00715 - N4730 W00600 - N4715 W00715 - N4830 W00800 FL170/280 MOV E 15KT INTSF=
SIGMET 1  cancelation
LFRR SIGMET 2 VALID 112220/120400 LFPW
LFRR BREST FIR/UIR CNL SIGMET 1 120000/120400=
SIGMET 1  CANCELED :
Severe turbulence
LFRR SIGMET 1 VALID 120000/120400 LFPW
LFRR BREST FIR/UIR SEV TURB FCST WI N4830 W00800 - N4900 W00800 - N4915 W00715 - N4800 W00630 - N4730 W00700 - N4830 W00800 FL170/280 MOV E 15KT INTSF=



MET'MAP, your aeronautical weather chart ! - Copyright ORBIFLY December 2007 - Disclaimer

ORBIFLY MET'MAP TEAM :

Programming & Development : Alexandra Zaïnal
Concept & Development : Baudouin d'Aumeries
Co-Development & Prog : Marc-Olivier Méhu
Technical & hardware support : Manuel Goepfert

Contact : metmap@orbifly.com




SOURCES & CREDITS :

   NOAA